createdAt,value
2023-03-03T00:00:55.164Z,3.50
2023-03-03T00:03:27.552Z,4.22
2023-03-03T00:05:59.944Z,3.60
2023-03-03T00:08:32.637Z,3.92
2023-03-03T00:11:06.392Z,4.05
2023-03-03T00:13:44.969Z,3.50
2023-03-03T00:16:26.097Z,3.90
2023-03-03T00:18:58.338Z,3.85
2023-03-03T00:21:44.987Z,3.80
2023-03-03T00:24:38.154Z,3.95
2023-03-03T00:27:34.434Z,4.15
2023-03-03T00:30:20.159Z,4.03
2023-03-03T00:32:53.186Z,3.78
2023-03-03T00:35:35.641Z,3.53
2023-03-03T00:38:14.846Z,3.95
2023-03-03T00:40:48.261Z,4.28
2023-03-03T00:43:25.908Z,4.07
2023-03-03T00:45:58.655Z,4.05
2023-03-03T00:48:42.293Z,4.07
2023-03-03T00:51:21.208Z,4.35
2023-03-03T00:53:53.236Z,3.83
2023-03-03T00:56:25.392Z,4.00
2023-03-03T00:58:57.487Z,3.90
2023-03-03T01:01:31.480Z,4.38
2023-03-03T01:04:03.337Z,3.90
2023-03-03T01:06:36.074Z,3.72
2023-03-03T01:09:07.943Z,4.78
2023-03-03T01:11:39.824Z,4.38
2023-03-03T01:14:11.683Z,3.65
2023-03-03T01:16:43.642Z,3.95
2023-03-03T01:19:15.619Z,4.57
2023-03-03T01:21:47.528Z,4.35
2023-03-03T01:24:19.687Z,4.13
2023-03-03T01:26:51.519Z,4.60
2023-03-03T01:29:23.466Z,3.97
2023-03-03T01:31:55.398Z,4.95
2023-03-03T01:34:27.330Z,4.03
2023-03-03T01:37:01.047Z,4.93
2023-03-03T01:39:32.961Z,4.50
2023-03-03T01:42:05.306Z,4.13
2023-03-03T01:44:37.253Z,4.30
2023-03-03T01:47:21.178Z,4.32
2023-03-03T01:50:04.263Z,4.18
2023-03-03T01:52:40.935Z,3.50
2023-03-03T01:55:20.705Z,4.00
2023-03-03T01:58:05.744Z,4.25
2023-03-03T02:00:41.070Z,4.07
2023-03-03T02:03:13.089Z,4.38
2023-03-03T02:05:48.007Z,4.03
2023-03-03T02:08:23.710Z,3.83
2023-03-03T02:10:57.494Z,4.57
2023-03-03T02:13:30.477Z,4.18
2023-03-03T02:16:02.757Z,4.22
2023-03-03T02:18:34.886Z,4.15
2023-03-03T02:21:20.788Z,3.83
2023-03-03T02:24:04.628Z,3.97
2023-03-03T02:26:41.483Z,3.70
2023-03-03T02:29:15.265Z,4.28
2023-03-03T02:31:47.186Z,3.85
2023-03-03T02:34:19.499Z,4.00
2023-03-03T02:36:51.730Z,3.97
2023-03-03T02:39:26.952Z,3.90
2023-03-03T02:42:12.370Z,4.03
2023-03-03T02:44:52.255Z,4.20
2023-03-03T02:47:50.552Z,3.97
2023-03-03T02:50:24.182Z,3.95
2023-03-03T02:52:57.125Z,4.05
2023-03-03T02:55:29.059Z,3.97
2023-03-03T02:58:00.967Z,4.50
2023-03-03T03:00:33.294Z,4.45
2023-03-03T03:03:06.287Z,3.70
2023-03-03T03:05:38.607Z,3.88
2023-03-03T03:08:10.658Z,4.20
2023-03-03T03:10:42.538Z,3.70
2023-03-03T03:13:15.491Z,4.50
2023-03-03T03:15:49.281Z,4.10
2023-03-03T03:18:21.258Z,4.28
2023-03-03T03:20:54.696Z,4.00
2023-03-03T03:23:26.827Z,4.07
2023-03-03T03:25:58.732Z,4.35
2023-03-03T03:28:34.103Z,4.38
2023-03-03T03:31:10.537Z,4.03
2023-03-03T03:33:42.629Z,3.70
2023-03-03T03:36:17.013Z,3.70
2023-03-03T03:38:49.102Z,3.67
2023-03-03T03:41:21.105Z,3.80
2023-03-03T03:43:52.978Z,4.28
2023-03-03T03:46:25.060Z,3.90
2023-03-03T03:48:57.627Z,3.95
2023-03-03T03:51:34.019Z,4.13
2023-03-03T03:54:05.952Z,3.63
2023-03-03T03:56:40.035Z,3.67
2023-03-03T03:59:12.613Z,3.63
2023-03-03T04:01:44.483Z,3.78
2023-03-03T04:04:17.413Z,3.92
2023-03-03T04:06:49.753Z,4.15
2023-03-03T04:09:21.903Z,3.13
2023-03-03T04:11:54.319Z,3.67
2023-03-03T04:14:26.301Z,3.58
2023-03-03T04:16:58.353Z,3.28
2023-03-03T04:19:30.338Z,3.47
2023-03-03T04:22:02.336Z,3.72
2023-03-03T04:24:35.951Z,3.42
2023-03-03T04:27:09.533Z,3.42
2023-03-03T04:29:42.873Z,3.65
2023-03-03T04:32:16.404Z,3.20
2023-03-03T04:34:53.084Z,3.42
2023-03-03T04:37:31.300Z,3.20
2023-03-03T04:40:04.919Z,3.72
2023-03-03T04:42:36.856Z,3.22
2023-03-03T04:45:09.619Z,2.97
2023-03-03T04:47:42.282Z,3.15
2023-03-03T04:50:14.563Z,3.22
2023-03-03T04:52:46.603Z,3.15
2023-03-03T04:55:18.849Z,3.40
2023-03-03T04:57:52.771Z,2.92
2023-03-03T05:00:24.931Z,3.53
2023-03-03T05:02:57.081Z,3.38
2023-03-03T05:05:29.258Z,2.88
2023-03-03T05:08:01.111Z,3.83
2023-03-03T05:10:35.059Z,3.10
2023-03-03T05:13:09.204Z,2.88
2023-03-03T05:15:43.165Z,3.00
2023-03-03T05:18:15.213Z,3.30
2023-03-03T05:20:47.508Z,3.38
2023-03-03T05:23:19.836Z,2.63
2023-03-03T05:25:52.190Z,3.20
2023-03-03T05:28:24.051Z,3.13
2023-03-03T05:30:55.889Z,3.30
2023-03-03T05:33:27.838Z,3.20
2023-03-03T05:35:59.714Z,3.20
2023-03-03T05:38:31.582Z,3.10
2023-03-03T05:41:03.536Z,2.85
2023-03-03T05:43:35.516Z,2.90
2023-03-03T05:46:07.412Z,3.25
2023-03-03T05:48:39.481Z,3.40
2023-03-03T05:51:11.544Z,3.33
2023-03-03T05:53:43.448Z,3.40
2023-03-03T05:56:15.358Z,3.30
2023-03-03T05:58:47.271Z,3.65
2023-03-03T06:01:19.165Z,3.17
2023-03-03T06:03:50.960Z,3.67
2023-03-03T06:06:22.800Z,3.63
2023-03-03T06:08:57.222Z,3.13
2023-03-03T06:11:29.373Z,2.92
2023-03-03T06:14:01.268Z,2.83
2023-03-03T06:16:33.270Z,3.10
2023-03-03T06:19:05.514Z,3.67
2023-03-03T06:21:37.459Z,3.30
2023-03-03T06:24:09.628Z,3.22
2023-03-03T06:26:41.941Z,3.47
2023-03-03T06:29:15.619Z,3.05
2023-03-03T06:31:47.801Z,3.75
2023-03-03T06:34:20.073Z,3.33
2023-03-03T06:36:52.598Z,3.42
2023-03-03T06:39:24.410Z,3.75
2023-03-03T06:41:56.307Z,3.97
2023-03-03T06:44:29.004Z,3.58
2023-03-03T06:47:01.027Z,3.38
2023-03-03T06:49:32.973Z,3.53
2023-03-03T06:52:20.373Z,3.38
2023-03-03T06:54:57.307Z,3.80
2023-03-03T06:57:29.089Z,3.85
2023-03-03T07:00:24.458Z,4.10
2023-03-03T07:03:01.249Z,3.97
2023-03-03T07:05:34.473Z,3.85
2023-03-03T07:08:18.301Z,31.42
2023-03-03T07:10:51.669Z,9.32
2023-03-03T07:13:25.041Z,5.05
2023-03-03T07:16:01.400Z,5.05
2023-03-03T07:18:54.436Z,8.60
2023-03-03T07:21:32.928Z,6.75
2023-03-03T07:24:16.474Z,4.90
2023-03-03T07:26:48.521Z,6.82
2023-03-03T07:29:33.743Z,6.03
2023-03-03T07:32:33.698Z,6.55
2023-03-03T07:35:28.274Z,5.40
2023-03-03T07:38:00.833Z,13.13
2023-03-03T07:40:38.572Z,4.53
2023-03-03T07:43:36.560Z,4.60
2023-03-03T07:46:11.469Z,5.38
2023-03-03T07:48:44.182Z,4.38
2023-03-03T07:51:41.840Z,4.38
2023-03-03T07:54:32.525Z,3.83
2023-03-03T07:57:10.099Z,4.50
2023-03-03T08:00:10.378Z,5.22
2023-03-03T08:02:45.811Z,5.97
2023-03-03T08:05:30.019Z,6.82
2023-03-03T08:08:26.016Z,6.65
2023-03-03T08:10:59.575Z,5.38
2023-03-03T08:13:34.192Z,5.18
2023-03-03T08:16:09.140Z,5.32
2023-03-03T08:18:40.945Z,4.72
2023-03-03T08:21:24.090Z,4.93
2023-03-03T08:23:56.042Z,4.65
2023-03-03T08:26:27.900Z,4.78
2023-03-03T08:29:01.299Z,4.88
2023-03-03T08:31:41.199Z,5.13
2023-03-03T08:34:13.691Z,4.88
2023-03-03T08:36:47.385Z,5.05
2023-03-03T08:39:19.258Z,5.50
2023-03-03T08:41:51.154Z,5.40
2023-03-03T08:44:23.087Z,5.32
2023-03-03T08:46:54.938Z,5.97
2023-03-03T08:49:26.769Z,5.43
2023-03-03T08:52:00.750Z,6.68
2023-03-03T08:54:32.745Z,7.00
2023-03-03T08:57:04.819Z,7.57
2023-03-03T08:59:39.043Z,7.68
2023-03-03T09:02:10.985Z,7.88
2023-03-03T09:04:43.279Z,7.70
2023-03-03T09:07:15.215Z,7.93
2023-03-03T09:09:47.438Z,8.10
2023-03-03T09:12:33.412Z,7.10
2023-03-03T09:15:23.025Z,7.30
2023-03-03T09:17:57.913Z,8.07
2023-03-03T09:20:35.909Z,8.35
2023-03-03T09:23:25.831Z,8.85
2023-03-03T09:26:11.376Z,8.73
2023-03-03T09:28:43.237Z,8.55
2023-03-03T09:31:22.531Z,7.82
2023-03-03T09:33:57.762Z,8.40
2023-03-03T09:36:36.569Z,8.93
2023-03-03T09:39:21.601Z,8.77
2023-03-03T09:42:02.146Z,8.15
2023-03-03T09:45:01.639Z,8.67
2023-03-03T09:47:45.484Z,8.00
2023-03-03T09:50:30.872Z,8.32
2023-03-03T09:53:24.530Z,8.48
2023-03-03T09:56:11.772Z,8.25
2023-03-03T09:59:05.231Z,8.45
2023-03-03T10:01:55.665Z,9.13
2023-03-03T10:04:42.577Z,8.98
2023-03-03T10:07:33.281Z,9.02
2023-03-03T10:10:46.044Z,9.05
2023-03-03T10:13:44.107Z,10.20
2023-03-03T10:16:37.363Z,10.40
2023-03-03T10:19:41.223Z,9.55
2023-03-03T10:22:49.673Z,9.23
2023-03-03T10:25:30.862Z,9.20
2023-03-03T10:28:30.668Z,11.20
2023-03-03T10:31:28.475Z,9.15
2023-03-03T10:34:19.752Z,9.20
2023-03-03T10:37:21.321Z,9.13
2023-03-03T10:42:50.886Z,9.43
2023-03-03T10:45:47.732Z,9.30
2023-03-03T10:48:56.019Z,9.13
2023-03-03T10:52:02.010Z,8.77
2023-03-03T10:54:57.685Z,9.32
2023-03-03T10:57:52.806Z,8.77
2023-03-03T11:00:41.438Z,9.77
2023-03-03T11:03:42.245Z,8.98
2023-03-03T11:06:59.799Z,9.25
2023-03-03T11:09:31.931Z,9.57
2023-03-03T11:12:22.472Z,9.82
2023-03-03T11:15:31.738Z,9.73
2023-03-03T11:18:29.298Z,9.90
2023-03-03T11:21:16.132Z,10.35
2023-03-03T11:24:07.928Z,10.10
2023-03-03T11:26:54.987Z,9.88
2023-03-03T11:29:39.792Z,9.63
2023-03-03T11:32:39.331Z,10.10
2023-03-03T11:35:33.357Z,9.70
2023-03-03T11:38:24.311Z,9.40
2023-03-03T11:41:19.741Z,9.70
2023-03-03T11:44:04.004Z,9.35
2023-03-03T11:46:48.480Z,9.57
2023-03-03T11:49:50.347Z,9.60
2023-03-03T11:52:59.815Z,9.70
2023-03-03T11:55:38.012Z,9.68
2023-03-03T11:58:47.038Z,10.27
2023-03-03T12:01:36.696Z,11.43
2023-03-03T12:04:16.650Z,10.35
2023-03-03T12:07:22.163Z,10.15
2023-03-03T12:09:56.790Z,11.05
2023-03-03T12:12:48.062Z,10.38
2023-03-03T12:15:28.791Z,10.82
2023-03-03T12:18:13.295Z,11.95
2023-03-03T12:21:03.808Z,10.25
2023-03-03T12:24:04.932Z,10.48
2023-03-03T12:27:00.198Z,14.70
2023-03-03T12:29:51.107Z,10.55
2023-03-03T12:32:40.902Z,10.93
2023-03-03T12:35:33.107Z,9.98
2023-03-03T12:38:11.010Z,10.23
2023-03-03T12:40:56.651Z,10.65
2023-03-03T12:43:58.399Z,10.02
2023-03-03T12:46:50.513Z,9.93
2023-03-03T12:49:34.591Z,9.70
2023-03-03T12:52:24.342Z,10.30
2023-03-03T12:55:17.077Z,9.90
2023-03-03T12:58:11.994Z,10.27
2023-03-03T13:01:12.773Z,9.90
2023-03-03T13:04:05.885Z,12.45
2023-03-03T13:06:37.680Z,12.90
2023-03-03T13:09:47.078Z,11.20
2023-03-03T13:12:38.060Z,10.18
2023-03-03T13:15:33.299Z,9.63
2023-03-03T13:18:39.738Z,9.13
2023-03-03T13:21:16.928Z,9.63
2023-03-03T13:23:54.744Z,9.80
2023-03-03T13:26:35.732Z,9.05
2023-03-03T13:29:13.240Z,10.15
2023-03-03T13:31:53.893Z,8.77
2023-03-03T13:34:50.394Z,10.50
2023-03-03T13:37:32.310Z,9.82
2023-03-03T13:40:13.634Z,9.57
2023-03-03T13:46:14.775Z,9.40
2023-03-03T13:49:16.184Z,9.57
2023-03-03T13:51:56.985Z,8.60
2023-03-03T13:54:49.921Z,8.73
2023-03-03T13:57:36.554Z,8.70
2023-03-03T14:00:23.872Z,8.38
2023-03-03T14:03:34.480Z,8.63
2023-03-03T14:06:17.945Z,8.68
2023-03-03T14:09:32.977Z,8.70
2023-03-03T14:12:23.895Z,8.80
2023-03-03T14:15:23.843Z,7.93
2023-03-03T14:18:21.237Z,9.30
2023-03-03T14:20:55.960Z,8.27
2023-03-03T14:23:52.672Z,9.55
2023-03-03T14:26:24.845Z,9.15
2023-03-03T14:29:21.644Z,9.20
2023-03-03T14:31:59.485Z,8.52
2023-03-03T14:34:40.090Z,9.07
2023-03-03T14:37:28.204Z,8.65
2023-03-03T14:40:07.010Z,8.48
2023-03-03T14:42:52.847Z,8.40
2023-03-03T14:45:42.656Z,8.82
2023-03-03T14:48:18.586Z,9.30
2023-03-03T14:51:00.789Z,9.43
2023-03-03T14:53:43.362Z,8.57
2023-03-03T14:56:33.386Z,8.95
2023-03-03T14:59:26.861Z,7.97
2023-03-03T15:02:17.337Z,8.00
2023-03-03T15:04:49.659Z,9.30
2023-03-03T15:07:35.455Z,9.40
2023-03-03T15:10:08.538Z,8.85
2023-03-03T15:12:41.970Z,9.50
2023-03-03T15:15:22.372Z,8.98
2023-03-03T15:18:04.194Z,9.30
2023-03-03T15:21:16.393Z,9.13
2023-03-03T15:24:17.643Z,9.90
2023-03-03T15:27:06.987Z,10.25
2023-03-03T15:30:02.800Z,10.38
2023-03-03T15:32:49.388Z,10.43
2023-03-03T15:35:47.166Z,10.05
2023-03-03T15:38:31.945Z,9.93
2023-03-03T15:41:25.694Z,9.77
2023-03-03T15:44:07.140Z,10.60
2023-03-03T15:46:50.070Z,9.82
2023-03-03T15:49:54.215Z,10.90
2023-03-03T15:52:28.874Z,10.25
2023-03-03T15:55:38.514Z,10.30
2023-03-03T15:58:22.675Z,10.32
2023-03-03T16:01:27.257Z,9.98
2023-03-03T16:04:11.817Z,10.63
2023-03-03T16:06:55.917Z,10.88
2023-03-03T16:09:53.920Z,10.68
2023-03-03T16:12:30.500Z,10.57
2023-03-03T16:15:20.972Z,9.75
2023-03-03T16:17:58.750Z,9.65
2023-03-03T16:20:59.570Z,12.50
2023-03-03T16:23:47.820Z,12.02
2023-03-03T16:26:51.041Z,11.95
2023-03-03T16:29:37.044Z,11.52
2023-03-03T16:32:13.991Z,11.45
2023-03-03T16:35:16.563Z,12.40
2023-03-03T16:37:59.706Z,11.45
2023-03-03T16:40:57.291Z,11.02
2023-03-03T16:43:37.412Z,11.50
2023-03-03T16:46:34.098Z,11.85
2023-03-03T16:49:27.374Z,10.77
2023-03-03T16:52:16.826Z,11.15
2023-03-03T16:55:08.138Z,10.52
2023-03-03T16:57:51.475Z,11.30
2023-03-03T17:00:52.173Z,12.55
2023-03-03T17:04:01.117Z,13.18
2023-03-03T17:06:48.373Z,13.48
2023-03-03T17:09:32.999Z,12.52
2023-03-03T17:12:20.272Z,13.07
2023-03-03T17:15:22.296Z,13.55
2023-03-03T17:18:24.603Z,13.68
2023-03-03T17:21:02.041Z,11.95
2023-03-03T17:24:23.425Z,12.82
2023-03-03T17:27:13.430Z,11.68
2023-03-03T17:29:58.524Z,13.73
2023-03-03T17:32:30.442Z,14.10
2023-03-03T17:35:31.511Z,12.23
2023-03-03T17:38:18.839Z,13.50
2023-03-03T17:40:53.525Z,12.27
2023-03-03T17:43:43.359Z,11.85
2023-03-03T17:46:23.426Z,13.48
2023-03-03T17:49:20.076Z,13.50
2023-03-03T17:52:13.264Z,12.88
2023-03-03T17:55:11.592Z,12.90
2023-03-03T17:57:49.351Z,12.65
2023-03-03T18:00:47.497Z,12.20
2023-03-03T18:03:46.289Z,12.70
2023-03-03T18:06:27.777Z,13.63
2023-03-03T18:09:13.272Z,13.23
2023-03-03T18:11:54.617Z,14.40
2023-03-03T18:14:43.242Z,13.32
2023-03-03T18:17:46.434Z,12.93
2023-03-03T18:20:27.123Z,13.38
2023-03-03T18:23:27.850Z,13.23
2023-03-03T18:26:24.457Z,13.40
2023-03-03T18:29:17.101Z,12.57
2023-03-03T18:31:58.051Z,13.85
2023-03-03T18:34:33.690Z,13.18
2023-03-03T18:37:10.770Z,14.05
2023-03-03T18:39:48.351Z,13.02
2023-03-03T18:42:23.495Z,12.35
2023-03-03T18:44:55.467Z,12.40
2023-03-03T18:48:01.348Z,13.10
2023-03-03T18:50:37.910Z,14.27
2023-03-03T18:53:29.208Z,13.80
2023-03-03T18:56:08.836Z,12.82
2023-03-03T18:58:42.774Z,12.43
2023-03-03T19:01:41.771Z,12.57
2023-03-03T19:04:13.747Z,12.02
2023-03-03T19:06:48.654Z,12.77
2023-03-03T19:10:03.756Z,15.35
2023-03-03T19:12:54.359Z,15.23
2023-03-03T19:15:38.308Z,14.98
2023-03-03T19:18:21.207Z,13.32
2023-03-03T19:21:03.723Z,13.93
2023-03-03T19:24:06.770Z,18.50
2023-03-03T19:26:54.509Z,14.80
2023-03-03T19:29:45.858Z,13.90
2023-03-03T19:32:29.970Z,13.02
2023-03-03T19:35:02.106Z,12.93
2023-03-03T19:38:10.368Z,13.93
2023-03-03T19:41:00.598Z,14.70
2023-03-03T19:43:43.164Z,18.17
2023-03-03T19:46:55.900Z,22.40
2023-03-03T19:49:30.627Z,15.00
2023-03-03T19:52:18.408Z,13.68
2023-03-03T19:55:28.237Z,12.55
2023-03-03T19:58:18.385Z,11.98
2023-03-03T20:01:35.570Z,13.23
2023-03-03T20:04:19.661Z,12.13
2023-03-03T20:07:24.078Z,11.75
2023-03-03T20:10:26.638Z,12.55
2023-03-03T20:13:06.817Z,13.32
2023-03-03T20:15:43.420Z,12.25
2023-03-03T20:18:24.293Z,12.50
2023-03-03T20:21:20.961Z,12.05
2023-03-03T20:24:22.128Z,14.90
2023-03-03T20:27:17.462Z,11.82
2023-03-03T20:30:12.877Z,10.52
2023-03-03T20:33:08.838Z,10.90
2023-03-03T20:36:06.334Z,11.10
2023-03-03T20:39:04.362Z,11.13
2023-03-03T20:41:39.268Z,11.30
2023-03-03T20:44:25.875Z,10.38
2023-03-03T20:47:19.451Z,10.63
2023-03-03T20:50:15.655Z,9.85
2023-03-03T20:52:47.582Z,10.27
2023-03-03T20:55:30.747Z,10.02
2023-03-03T20:58:11.678Z,10.15
2023-03-03T21:00:50.810Z,10.32
2023-03-03T21:03:38.031Z,9.40
2023-03-03T21:06:15.347Z,10.18
2023-03-03T21:08:53.159Z,9.95
2023-03-03T21:11:43.600Z,10.18
2023-03-03T21:14:22.262Z,9.90
2023-03-03T21:16:57.255Z,10.15
2023-03-03T21:19:34.187Z,9.27
2023-03-03T21:22:06.085Z,8.93
2023-03-03T21:24:58.899Z,9.27
2023-03-03T21:27:33.502Z,9.07
2023-03-03T21:30:14.374Z,9.15
2023-03-03T21:32:49.145Z,8.00
2023-03-03T21:35:22.423Z,9.10
2023-03-03T21:37:57.620Z,8.93
2023-03-03T21:40:30.777Z,9.27
2023-03-03T21:43:02.693Z,9.02
2023-03-03T21:45:34.492Z,9.68
2023-03-03T21:48:06.616Z,9.02
2023-03-03T21:50:42.278Z,8.77
2023-03-03T21:53:14.179Z,8.48
2023-03-03T21:55:48.901Z,8.77
2023-03-03T21:58:20.815Z,7.97
2023-03-03T22:00:52.772Z,13.80
2023-03-03T22:03:24.808Z,9.48
2023-03-03T22:05:57.191Z,8.88
2023-03-03T22:08:29.246Z,8.75
2023-03-03T22:11:03.306Z,8.55
2023-03-03T22:13:35.166Z,7.72
2023-03-03T22:16:08.154Z,8.07
2023-03-03T22:18:40.091Z,7.90
2023-03-03T22:21:11.931Z,7.80
2023-03-03T22:23:43.769Z,7.22
2023-03-03T22:26:15.731Z,7.20
2023-03-03T22:28:49.170Z,8.15
2023-03-03T22:31:21.096Z,7.70
2023-03-03T22:33:53.043Z,7.60
2023-03-03T22:36:24.903Z,7.60
2023-03-03T22:38:56.879Z,7.72
2023-03-03T22:41:28.754Z,7.70
2023-03-03T22:44:02.246Z,7.93
2023-03-03T22:46:34.264Z,8.13
2023-03-03T22:49:06.220Z,8.15
2023-03-03T22:51:38.039Z,7.57
2023-03-03T22:54:09.917Z,6.82
2023-03-03T22:56:41.736Z,7.68
2023-03-03T22:59:13.542Z,7.03
2023-03-03T23:01:45.525Z,11.02
2023-03-03T23:04:17.372Z,7.60
2023-03-03T23:06:50.080Z,8.25
2023-03-03T23:09:21.998Z,6.75
2023-03-03T23:11:53.953Z,6.60
2023-03-03T23:14:25.848Z,10.48
2023-03-03T23:16:57.656Z,7.00
2023-03-03T23:19:29.526Z,6.88
2023-03-03T23:22:01.347Z,7.35
2023-03-03T23:24:33.251Z,6.80
2023-03-03T23:27:05.113Z,7.03
2023-03-03T23:29:37.229Z,6.68
2023-03-03T23:32:09.158Z,6.43
2023-03-03T23:34:40.961Z,7.57
2023-03-03T23:37:12.776Z,6.88
2023-03-03T23:39:44.855Z,6.95
2023-03-03T23:42:16.779Z,6.03
2023-03-03T23:44:48.613Z,6.63
2023-03-03T23:47:20.473Z,7.05
2023-03-03T23:49:52.713Z,7.45
2023-03-03T23:52:24.629Z,7.35
2023-03-03T23:54:56.502Z,6.75
2023-03-03T23:57:28.406Z,6.95
